Time;durP1;ratioP1;P1;durP2;ratioP2;P2;SDS_P1;SDS_P2;PMS_P1;PMS_P2;Temp;Humidity;BMP_temperature;BMP_pressure;BME280_temperature;BME280_humidity;BME280_pressure;Samples;Min_cycle;Max_cycle;Signal;HPM_P1;HPM_P2
2021/12/25 00:03:00;;;;;;;1.40;1.00;;;;;;;;;;21170809;28;20208;-79
2021/12/25 00:13:01;;;;;;;1.83;1.10;;;6.30;99.90;;;;;;21150784;28;20220;-78
2021/12/25 00:23:07;;;;;;;1.87;1.30;;;;;;;;;;21160597;28;20232;-76
2021/12/25 00:43:34;;;;;;;1.90;1.30;;;6.30;99.90;;;;;;21045318;28;20221;-77
2021/12/25 00:53:36;;;;;;;2.27;1.30;;;;;;;;;;21079839;28;20232;-78
2021/12/25 01:03:37;;;;;;;1.63;1.33;;;;;;;;;;21079958;28;20255;-78
2021/12/25 01:13:47;;;;;;;2.40;1.37;;;;;;;;;;21079645;28;20236;-78
2021/12/25 01:35:10;;;;;;;2.10;1.20;;;;;;;;;;21079549;28;20285;-80
2021/12/25 01:56:16;;;;;;;1.47;0.90;;;6.30;99.90;;;;;;21142669;28;20347;-77
2021/12/25 02:06:18;;;;;;;1.20;0.70;;;;;;;;;;21142363;28;20220;-77
2021/12/25 02:16:23;;;;;;;1.13;0.90;;;;;;;;;;21125070;28;20215;-78
2021/12/25 02:26:32;;;;;;;1.83;1.20;;;6.30;99.90;;;;;;21128549;28;20296;-78
2021/12/25 02:36:34;;;;;;;1.60;0.87;;;;;;;;;;21141037;28;20260;-78
2021/12/25 02:46:36;;;;;;;1.87;1.27;;;;;;;;;;21140572;28;20635;-77
2021/12/25 02:56:38;;;;;;;1.20;0.87;;;;;;;;;;21158827;28;20232;-77
2021/12/25 03:06:41;;;;;;;2.00;1.20;;;;;;;;;;21157880;28;20288;-78
2021/12/25 03:16:43;;;;;;;1.53;1.10;;;;;;;;;;21141247;28;20284;-75
2021/12/25 03:26:44;;;;;;;1.83;1.10;;;;;;;;;;21137582;28;20245;-76
2021/12/25 03:36:47;;;;;;;1.67;1.30;;;;;;;;;;21154671;28;20216;-77
2021/12/25 03:46:48;;;;;;;1.77;1.07;;;;;;;;;;21171849;28;20295;-75
2021/12/25 04:07:40;;;;;;;2.57;1.47;;;6.30;99.90;;;;;;21169653;28;20219;-77
2021/12/25 04:17:39;;;;;;;2.70;1.27;;;;;;;;;;21169073;28;20228;-76
2021/12/25 04:27:41;;;;;;;3.57;1.60;;;;;;;;;;21157966;28;20280;-79
2021/12/25 05:08:39;;;;;;;1.50;0.83;;;;;;;;;;21132935;28;20720;-77
2021/12/25 05:18:42;;;;;;;2.17;1.50;;;;;;;;;;21163134;28;20223;-78
2021/12/25 05:28:46;;;;;;;2.70;1.27;;;;;;;;;;21144949;28;20223;-79
2021/12/25 05:38:51;;;;;;;2.60;1.70;;;;;;;;;;21158230;28;20212;-79
2021/12/25 05:49:06;;;;;;;2.37;1.57;;;;;;;;;;21121789;28;20227;-78
2021/12/25 05:59:27;;;;;;;2.40;1.80;;;;;;;;;;21129191;28;20581;-81
2021/12/25 06:09:29;;;;;;;3.20;1.97;;;;;;;;;;21160663;28;20207;-78
2021/12/25 06:19:32;;;;;;;2.73;1.50;;;;;;;;;;21140289;28;20268;-79
2021/12/25 06:29:59;;;;;;;2.03;1.20;;;6.40;99.90;;;;;;21066677;28;20286;-78
2021/12/25 06:40:30;;;;;;;2.03;1.30;;;;;;;;;;21184769;27;20211;-78
2021/12/25 06:50:33;;;;;;;2.00;1.47;;;;;;;;;;21213567;27;20283;-79
2021/12/25 07:00:55;;;;;;;2.33;1.63;;;;;;;;;;21158532;27;20223;-78
2021/12/25 07:10:57;;;;;;;2.40;1.50;;;;;;;;;;21140170;28;20292;-78
2021/12/25 07:21:21;;;;;;;2.83;1.93;;;;;;;;;;21152049;28;20223;-79
2021/12/25 07:31:31;;;;;;;2.47;1.70;;;;;;;;;;21140261;28;20231;-79
2021/12/25 07:41:33;;;;;;;1.23;0.93;;;;;;;;;;21184772;27;20212;-78
2021/12/25 07:51:35;;;;;;;2.97;1.90;;;;;;;;;;21153948;28;20239;-79
2021/12/25 08:01:37;;;;;;;4.37;2.20;;;6.20;99.90;;;;;;21152542;28;20575;-77
2021/12/25 08:11:39;;;;;;;2.03;1.23;;;;;;;;;;21129807;28;20359;-78
2021/12/25 08:21:41;;;;;;;1.50;1.23;;;;;;;;;;21122293;28;20288;-79
2021/12/25 08:32:01;;;;;;;1.30;0.93;;;;;;;;;;21139103;27;20223;-79
2021/12/25 08:42:23;;;;;;;1.10;0.80;;;;;;;;;;21182886;27;20208;-79
2021/12/25 08:52:26;;;;;;;0.70;0.50;;;6.40;99.90;;;;;;21163281;27;20763;-79
2021/12/25 09:02:28;;;;;;;1.37;0.80;;;;;;;;;;21206325;27;20223;-79
2021/12/25 09:12:32;;;;;;;1.37;0.90;;;;;;;;;;21184937;27;20295;-79
2021/12/25 09:22:34;;;;;;;6.97;2.47;;;;;;;;;;21230685;27;20288;-80
2021/12/25 09:32:35;;;;;;;1.10;0.80;;;;;;;;;;21247977;27;20272;-78
2021/12/25 09:42:40;;;;;;;1.30;0.70;;;;;;;;;;21220309;27;20234;-78
2021/12/25 09:52:42;;;;;;;1.83;1.00;;;;;;;;;;21170685;27;20234;-78
2021/12/25 10:02:46;;;;;;;0.93;0.67;;;;;;;;;;21144843;28;20573;-80
2021/12/25 10:12:49;;;;;;;0.93;0.77;;;;;;;;;;21160280;28;20216;-79
2021/12/25 10:23:08;;;;;;;1.60;1.10;;;;;;;;;;21158632;28;20555;-79
2021/12/25 10:33:44;;;;;;;1.83;1.37;;;6.30;99.90;;;;;;21153043;27;20275;-79
2021/12/25 10:43:47;;;;;;;2.63;2.10;;;;;;;;;;21129057;28;20219;-78
2021/12/25 10:53:53;;;;;;;3.67;2.77;;;6.10;99.90;;;;;;21105784;27;20269;-78
2021/12/25 11:03:56;;;;;;;5.30;3.43;;;;;;;;;;21155373;28;20228;-78
2021/12/25 11:14:00;;;;;;;3.07;2.27;;;;;;;;;;21167778;27;20231;-80
2021/12/25 11:24:18;;;;;;;1.67;0.90;;;6.10;99.90;;;;;;21197799;27;20268;-78
2021/12/25 11:34:22;;;;;;;1.30;0.80;;;6.10;99.90;;;;;;21254047;27;20288;-78
2021/12/25 11:44:46;;;;;;;1.00;0.77;;;6.00;99.90;;;;;;21165446;27;20265;-79
2021/12/25 12:05:14;;;;;;;0.90;0.50;;;;;;;;;;21152751;28;20414;-77
2021/12/25 12:15:18;;;;;;;1.27;1.00;;;;;;;;;;21137533;27;20651;-78
2021/12/25 12:25:47;;;;;;;0.80;0.50;;;;;;;;;;21146336;27;20724;-79
2021/12/25 12:35:50;;;;;;;0.90;0.63;;;;;;;;;;21162664;28;20249;-77
2021/12/25 12:45:54;;;;;;;0.87;0.70;;;;;;;;;;21142220;27;20212;-78
2021/12/25 12:56:03;;;;;;;5.53;3.73;;;;;;;;;;21205034;27;20609;-80
2021/12/25 13:06:11;;;;;;;0.53;0.50;;;5.80;99.90;;;;;;21248872;27;20211;-79
2021/12/25 13:16:15;;;;;;;1.50;1.00;;;;;;;;;;21215219;27;20223;-78
2021/12/25 13:26:20;;;;;;;1.03;0.77;;;;;;;;;;21248382;27;20207;-78
2021/12/25 13:36:23;;;;;;;1.00;0.50;;;;;;;;;;21255313;27;20299;-78
2021/12/25 13:46:25;;;;;;;0.80;0.43;;;;;;;;;;21229402;27;20256;-78
2021/12/25 13:56:27;;;;;;;1.03;0.60;;;;;;;;;;21211099;27;20221;-77
2021/12/25 14:06:28;;;;;;;1.50;0.60;;;;;;;;;;21226201;27;20687;-77
2021/12/25 14:16:30;;;;;;;1.37;0.87;;;;;;;;;;21209232;27;20260;-78
2021/12/25 14:26:33;;;;;;;0.60;0.40;;;5.20;99.90;;;;;;21225078;27;20219;-77
2021/12/25 14:36:39;;;;;;;0.80;0.60;;;5.30;99.90;;;;;;21225202;27;20563;-78
2021/12/25 14:46:42;;;;;;;1.20;1.07;;;;;;;;;;21230039;27;20223;-78
2021/12/25 14:56:47;;;;;;;1.53;0.70;;;5.10;99.90;;;;;;21242346;27;20599;-77
2021/12/25 15:06:55;;;;;;;0.50;0.40;;;4.60;99.90;;;;;;21240553;27;20218;-77
2021/12/25 15:17:01;;;;;;;1.13;0.77;;;;;;;;;;21269329;27;20294;-78
2021/12/25 15:27:08;;;;;;;0.50;0.37;;;4.90;99.90;;;;;;21202522;27;20228;-78
2021/12/25 15:37:21;;;;;;;1.70;1.20;;;;;;;;;;21159907;28;20216;-77
2021/12/25 15:47:23;;;;;;;0.93;0.60;;;;;;;;;;21134200;27;20228;-79
2021/12/25 15:57:26;;;;;;;1.10;0.70;;;;;;;;;;21166249;28;20595;-78
2021/12/25 16:07:28;;;;;;;0.97;0.70;;;;;;;;;;21163714;28;20236;-78
2021/12/25 16:17:30;;;;;;;2.13;1.40;;;;;;;;;;21151855;28;20228;-78
2021/12/25 16:27:32;;;;;;;1.53;1.07;;;;;;;;;;21134980;28;20265;-78
2021/12/25 16:37:34;;;;;;;1.43;0.80;;;;;;;;;;21096503;28;20221;-81
2021/12/25 16:47:36;;;;;;;0.80;0.60;;;;;;;;;;21115579;28;20216;-78
2021/12/25 16:57:39;;;;;;;1.03;0.63;;;;;;;;;;21138185;28;20220;-79
2021/12/25 17:07:41;;;;;;;0.97;0.80;;;;;;;;;;21136860;28;20710;-81
2021/12/25 17:17:45;;;;;;;1.37;0.90;;;;;;;;;;21147525;28;20227;-77
2021/12/25 17:27:48;;;;;;;1.90;1.10;;;;;;;;;;21147699;28;20232;-76
2021/12/25 17:37:50;;;;;;;0.90;0.70;;;4.50;99.90;;;;;;21130042;27;20681;-77
2021/12/25 17:47:53;;;;;;;1.00;0.90;;;;;;;;;;21127579;27;20247;-77
2021/12/25 17:57:55;;;;;;;0.83;0.53;;;4.30;99.90;;;;;;21145733;28;20249;-77
2021/12/25 18:07:57;;;;;;;1.50;1.10;;;;;;;;;;21103076;28;20741;-77
2021/12/25 18:17:59;;;;;;;1.03;0.80;;;;;;;;;;21162765;27;20224;-78
2021/12/25 18:28:03;;;;;;;1.97;1.40;;;;;;;;;;21141486;27;20277;-77
2021/12/25 18:38:06;;;;;;;2.20;1.23;;;;;;;;;;21114937;28;20628;-77
2021/12/25 18:48:08;;;;;;;1.63;1.23;;;5.50;99.90;;;;;;21103118;28;20282;-77
2021/12/25 18:58:10;;;;;;;1.43;1.10;;;;;;;;;;21118161;28;20276;-77
2021/12/25 19:08:13;;;;;;;0.87;0.80;;;;;;;;;;21087115;28;20806;-77
2021/12/25 19:18:15;;;;;;;1.87;1.10;;;;;;;;;;21044849;28;20220;-78
2021/12/25 19:28:18;;;;;;;0.87;0.73;;;;;;;;;;21064228;28;20274;-78
2021/12/25 19:38:22;;;;;;;1.23;0.80;;;4.10;99.90;;;;;;21060337;28;20289;-78
2021/12/25 19:48:25;;;;;;;1.40;1.10;;;;;;;;;;21062520;28;20282;-77
2021/12/25 19:58:31;;;;;;;2.10;1.53;;;;;;;;;;21045270;28;20269;-77
2021/12/25 20:08:33;;;;;;;2.63;1.40;;;;;;;;;;21078085;28;20842;-78
2021/12/25 20:18:35;;;;;;;1.23;1.13;;;;;;;;;;21118506;28;20292;-77
2021/12/25 20:28:38;;;;;;;1.57;1.00;;;;;;;;;;21134345;28;20220;-77
2021/12/25 20:38:43;;;;;;;1.20;1.03;;;;;;;;;;21133413;28;20784;-78
2021/12/25 20:48:46;;;;;;;3.00;1.37;;;;;;;;;;21127047;28;20280;-76
2021/12/25 20:58:48;;;;;;;1.10;1.00;;;;;;;;;;21074178;28;20584;-78
2021/12/25 21:08:50;;;;;;;2.37;1.37;;;;;;;;;;21179017;27;20291;-79
2021/12/25 21:18:52;;;;;;;1.73;1.00;;;;;;;;;;21142321;27;20211;-80
2021/12/25 21:28:54;;;;;;;1.97;0.87;;;;;;;;;;21208328;27;20271;-78
2021/12/25 21:38:56;;;;;;;2.27;1.13;;;;;;;;;;21236806;27;20276;-78
2021/12/25 21:48:57;;;;;;;2.03;1.30;;;;;;;;;;21214732;27;20710;-79
2021/12/25 21:59:00;;;;;;;2.13;1.53;;;;;;;;;;21229658;27;20215;-79
2021/12/25 22:09:04;;;;;;;3.10;1.20;;;;;;;;;;21212186;27;20278;-78
2021/12/25 22:19:06;;;;;;;1.10;1.00;;;;;;;;;;21211248;27;20283;-78
2021/12/25 22:29:10;;;;;;;1.97;1.17;;;;;;;;;;21177491;27;20223;-79
2021/12/25 22:39:12;;;;;;;1.03;0.77;;;;;;;;;;21211444;27;20263;-79
2021/12/25 22:49:15;;;;;;;1.60;1.30;;;;;;;;;;21210336;27;20222;-80
2021/12/25 22:59:17;;;;;;;2.17;1.40;;;;;;;;;;21212126;27;20236;-78
2021/12/25 23:09:19;;;;;;;2.87;1.13;;;;;;;;;;21228271;27;20283;-78
2021/12/25 23:19:21;;;;;;;1.13;1.00;;;3.70;99.90;;;;;;21237247;27;20579;-76
2021/12/25 23:29:24;;;;;;;2.13;1.50;;;;;;;;;;21220545;27;20216;-77
2021/12/25 23:39:26;;;;;;;1.30;0.77;;;;;;;;;;21239028;27;20241;-80
2021/12/25 23:49:28;;;;;;;2.13;1.23;;;;;;;;;;21237977;27;20227;-77
2021/12/25 23:59:30;;;;;;;2.03;1.23;;;;;;;;;;21237423;27;20723;-77
